Old Boston, Texas
Current Conditions -  °F | °C
As of 6:53 PM on Monday 22 Dec 2014 (Local Time) from KTXK Reporting Station
Broken Clouds Broken Clouds  
Wind Chill: 57°   Ceiling: 4900
Heat Index: 57°   Visibility: 8mi
Dew Point: 55°   Wind: 3mph
Humidity: 93%   Direction: 170°S
Pressure: 29.61"   Gusts: NA
Location:  33.4799°N, 94.4582°W
Report Text: KTXK 230053Z 17003KT 8SM BKN049 14/13 A2961 RMK AO2 SLP023 T01390128
Loading
Personal Weather Stations






























Interactive Weather Map New forecast layout! Learn more

10-Day Weather Forecast

Advertisements
Track Severe Weather on mobile